Time;durP1;ratioP1;P1;durP2;ratioP2;P2;SDS_P1;SDS_P2;PMS_P1;PMS_P2;Temp;Humidity;BMP_temperature;BMP_pressure;BME280_temperature;BME280_humidity;BME280_pressure;Samples;Min_cycle;Max_cycle;Signal;HPM_P1;HPM_P2
2023/04/07 00:01:03;;;;;;;5.07;3.80;;;;;;;8.95;47.31;96683.78;4994157;28;20479;-77
2023/04/07 00:03:30;;;;;;;5.15;3.80;;;;;;;8.95;47.60;96687.19;4993656;28;20058;-77
2023/04/07 00:05:58;;;;;;;6.70;4.22;;;;;;;8.96;47.83;96686.19;4994103;28;20054;-77
2023/04/07 00:08:26;;;;;;;4.85;4.32;;;;;;;8.96;47.80;96685.41;4994184;28;20484;-77
2023/04/07 00:10:53;;;;;;;5.07;3.55;;;;;;;8.99;47.95;96685.88;4994504;28;20073;-77
2023/04/07 00:13:21;;;;;;;4.20;3.80;;;;;;;9.01;48.15;96681.31;4994890;28;20050;-77
2023/04/07 00:15:50;;;;;;;4.80;3.47;;;;;;;9.03;47.82;96689.78;4995989;28;20054;-77
2023/04/07 00:18:17;;;;;;;5.90;3.97;;;;;;;9.00;48.49;96677.09;5011641;28;20118;-76
2023/04/07 00:20:45;;;;;;;5.88;4.32;;;;;;;8.96;48.38;96683.59;5016196;28;20050;-78
2023/04/07 00:23:12;;;;;;;5.00;4.47;;;;;;;8.99;48.53;96682.47;5015166;28;20051;-78
2023/04/07 00:25:40;;;;;;;5.97;4.10;;;;;;;9.00;48.65;96676.28;5013965;28;20074;-77
2023/04/07 00:28:07;;;;;;;5.05;4.10;;;;;;;9.00;48.46;96679.69;5011591;28;20137;-77
2023/04/07 00:30:35;;;;;;;6.03;4.57;;;;;;;9.03;48.27;96674.16;5012600;28;20058;-77
2023/04/07 00:33:04;;;;;;;5.53;4.50;;;;;;;9.04;48.82;96675.78;5007649;28;20077;-78
2023/04/07 00:35:36;;;;;;;4.80;3.97;;;;;;;9.04;48.91;96667.97;4992934;28;20175;-77
2023/04/07 00:38:03;;;;;;;6.90;5.38;;;;;;;9.05;48.60;96668.78;4992133;28;20043;-77
2023/04/07 00:40:31;;;;;;;6.18;4.70;;;;;;;9.02;48.85;96675.13;4990433;28;20513;-77
2023/04/07 00:42:59;;;;;;;5.63;4.55;;;;;;;8.92;49.15;96666.75;4989665;28;20050;-77
2023/04/07 00:45:26;;;;;;;7.63;4.47;;;;;;;8.81;49.55;96672.28;4989782;28;20050;-77
2023/04/07 00:47:54;;;;;;;4.80;4.32;;;;;;;8.72;50.09;96670.69;4991306;28;20042;-76
2023/04/07 00:50:23;;;;;;;5.40;4.00;;;;;;;8.72;50.40;96673.31;4991515;28;20112;-76
2023/04/07 00:52:51;;;;;;;8.85;5.13;;;;;;;8.65;50.68;96666.16;4990407;28;20140;-77
2023/04/07 00:55:18;;;;;;;6.00;4.55;;;;;;;8.57;50.99;96671.41;4991769;28;20062;-77
2023/04/07 00:57:47;;;;;;;4.90;3.75;;;;;;;8.47;51.40;96657.78;4992701;28;20052;-77
2023/04/07 01:00:15;;;;;;;5.93;4.22;;;;;;;8.45;51.85;96657.94;4992957;28;20050;-77
2023/04/07 01:02:47;;;;;;;7.15;4.53;;;;;;;8.41;52.29;96651.44;4991720;28;20149;-77
2023/04/07 01:05:18;;;;;;;6.72;4.10;;;;;;;8.35;53.04;96657.31;4992613;28;20425;-77
2023/04/07 01:07:56;;;;;;;4.88;4.18;;;;;;;8.29;53.79;96654.53;4992881;28;20060;-77
2023/04/07 01:10:30;;;;;;;8.45;4.47;;;;;;;8.24;53.62;96655.88;4993226;28;20506;-77
2023/04/07 01:13:05;;;;;;;7.30;5.22;;;;;;;8.28;54.54;96658.13;4992397;28;20077;-77
2023/04/07 01:15:34;;;;;;;5.07;3.80;;;;;;;8.31;54.37;96645.63;4993026;28;20050;-77
2023/04/07 01:18:16;;;;;;;5.57;4.07;;;;;;;8.32;55.42;96644.63;4993194;28;20073;-77
2023/04/07 01:20:45;;;;;;;9.00;4.85;;;;;;;8.29;54.16;96641.53;4992605;28;20645;-77
2023/04/07 01:23:23;;;;;;;5.03;4.15;;;;;;;8.27;54.86;96638.31;4992762;28;20050;-77
2023/04/07 01:26:04;;;;;;;5.78;4.43;;;;;;;8.25;54.63;96635.88;4992938;28;20050;-77
2023/04/07 01:28:45;;;;;;;5.28;4.55;;;;;;;8.21;55.08;96627.59;4993173;28;20085;-77
2023/04/07 01:31:15;;;;;;;4.88;3.95;;;;;;;8.15;54.79;96630.84;4993354;28;20056;-77
2023/04/07 01:33:45;;;;;;;5.18;4.25;;;;;;;8.14;55.16;96625.84;4992788;28;20112;-77
2023/04/07 01:36:13;;;;;;;6.18;4.30;;;;;;;8.12;55.28;96631.19;4993018;28;20055;-77
2023/04/07 01:38:42;;;;;;;6.90;4.07;;;;;;;8.11;56.04;96632.19;4992998;28;20399;-77
2023/04/07 01:41:13;;;;;;;6.90;4.55;;;;;;;8.09;56.12;96628.94;4993071;28;20057;-77
2023/04/07 01:43:41;;;;;;;6.90;4.22;;;;;;;8.12;55.85;96623.41;4992252;28;20065;-76
2023/04/07 01:46:11;;;;;;;5.32;3.60;;;;;;;8.15;55.97;96623.06;4992817;28;20061;-77
2023/04/07 01:48:41;;;;;;;4.43;3.63;;;;;;;8.19;55.80;96608.75;4992625;28;20138;-77
2023/04/07 01:51:16;;;;;;;5.80;3.85;;;;;;;8.23;55.96;96612.66;4993020;28;20043;-77
2023/04/07 01:53:45;;;;;;;3.45;3.03;;;;;;;8.20;56.24;96610.41;4992541;28;20058;-77
2023/04/07 01:56:13;;;;;;;4.03;3.35;;;;;;;8.21;56.50;96596.41;4992562;28;20141;-77
2023/04/07 01:58:40;;;;;;;5.13;4.05;;;;;;;8.19;56.22;96603.56;4994413;28;20073;-78
2023/04/07 02:01:08;;;;;;;6.32;4.35;;;;;;;8.14;56.62;96599.84;4996269;28;20050;-77
2023/04/07 02:03:44;;;;;;;6.00;3.60;;;;;;;8.02;57.85;96600.22;4995917;28;20046;-77
2023/04/07 02:06:15;;;;;;;5.15;4.50;;;;;;;7.97;57.55;96601.66;4997477;28;20092;-77
2023/04/07 02:08:52;;;;;;;8.40;5.30;;;;;;;7.84;58.96;96587.41;5031048;22;20311;-79
2023/04/07 02:11:21;;;;;;;5.80;4.80;;;;;;;7.74;58.52;96591.97;5036582;28;20068;-79
2023/04/07 02:13:52;;;;;;;5.20;4.35;;;;;;;7.68;58.46;96594.41;5036190;28;20077;-78
2023/04/07 02:16:21;;;;;;;4.30;3.72;;;;;;;7.63;58.93;96597.47;5035281;28;20073;-77
2023/04/07 02:18:50;;;;;;;5.70;4.65;;;;;;;7.60;59.25;96590.03;5032145;28;20418;-79
2023/04/07 02:21:20;;;;;;;6.38;4.15;;;;;;;7.54;59.29;96593.25;5015728;28;20061;-78
2023/04/07 02:23:47;;;;;;;5.25;4.38;;;;;;;7.46;59.29;96593.28;5015469;28;20060;-79
2023/04/07 02:26:15;;;;;;;7.63;5.13;;;;;;;7.37;59.69;96588.09;5016009;28;20114;-78
2023/04/07 02:28:42;;;;;;;8.13;4.93;;;;;;;7.31;59.97;96585.31;5015977;28;20498;-78
2023/04/07 02:31:12;;;;;;;5.70;4.65;;;;;;;7.19;60.43;96577.03;5015798;28;20057;-77
2023/04/07 02:33:40;;;;;;;5.97;4.32;;;;;;;7.10;60.60;96585.78;5015889;28;20061;-79
2023/04/07 02:36:09;;;;;;;6.22;4.78;;;;;;;7.07;61.77;96580.94;5016115;28;20054;-78
2023/04/07 02:38:36;;;;;;;7.30;4.80;;;;;;;7.06;61.50;96568.91;5016194;28;20042;-78
2023/04/07 02:41:05;;;;;;;6.75;5.10;;;;;;;7.08;61.46;96566.97;5016024;28;20050;-77
2023/04/07 02:43:32;;;;;;;5.95;4.53;;;;;;;7.12;61.86;96568.28;5016147;28;20092;-78
2023/04/07 02:46:00;;;;;;;7.05;5.13;;;;;;;7.11;61.81;96566.66;5016130;28;20058;-78
2023/04/07 02:48:28;;;;;;;5.47;4.90;;;;;;;7.13;62.18;96559.53;5015890;28;20111;-77
2023/04/07 02:50:55;;;;;;;5.88;4.05;;;;;;;7.17;62.38;96563.41;5016258;28;20061;-78
2023/04/07 02:53:24;;;;;;;6.50;5.13;;;;;;;7.19;62.51;96564.91;5015686;28;20049;-78
2023/04/07 02:55:52;;;;;;;5.72;4.88;;;;;;;7.22;62.05;96561.16;5016468;28;20433;-79
2023/04/07 02:58:19;;;;;;;7.15;4.82;;;;;;;7.23;62.07;96558.38;5015996;28;20061;-78
2023/04/07 03:00:48;;;;;;;8.77;5.70;;;;;;;7.21;62.24;96562.94;5015909;28;20046;-78
2023/04/07 03:03:17;;;;;;;8.20;5.57;;;;;;;7.19;61.80;96553.69;5015630;28;20049;-78
2023/04/07 03:05:45;;;;;;;7.43;5.13;;;;;;;7.16;62.31;96543.63;5015955;28;20556;-80
2023/04/07 03:08:12;;;;;;;6.07;4.80;;;;;;;7.13;62.70;96554.34;5016602;28;20056;-78
2023/04/07 03:10:41;;;;;;;6.60;4.95;;;;;;;7.12;63.33;96550.91;5015621;28;20060;-78
2023/04/07 03:13:08;;;;;;;7.90;4.95;;;;;;;7.13;62.98;96546.56;5016196;28;20045;-78
2023/04/07 03:15:36;;;;;;;8.52;5.72;;;;;;;7.15;62.75;96548.03;5016324;28;20050;-78
2023/04/07 03:18:03;;;;;;;6.68;5.53;;;;;;;7.17;62.59;96542.66;5014438;28;20048;-78
2023/04/07 03:20:31;;;;;;;9.73;6.13;;;;;;;7.19;62.81;96535.53;5014221;28;20057;-77
2023/04/07 03:22:58;;;;;;;10.93;5.78;;;;;;;7.21;63.10;96536.19;5014248;28;20049;-78
2023/04/07 03:25:27;;;;;;;8.30;5.78;;;;;;;7.24;62.68;96535.88;5014562;28;20046;-77
2023/04/07 03:27:55;;;;;;;6.32;4.93;;;;;;;7.25;63.44;96540.06;5014618;28;20514;-79
2023/04/07 03:30:23;;;;;;;8.30;5.85;;;;;;;7.28;62.97;96526.78;5014535;28;20050;-78
2023/04/07 03:32:50;;;;;;;8.50;5.97;;;;;;;7.28;62.79;96521.59;5014372;28;20057;-77
2023/04/07 03:35:18;;;;;;;7.57;5.45;;;;;;;7.28;62.91;96519.00;5014423;28;20054;-78
2023/04/07 03:37:46;;;;;;;7.90;5.65;;;;;;;7.29;62.49;96525.81;5014894;28;20050;-79
2023/04/07 03:40:14;;;;;;;7.95;6.30;;;;;;;7.25;62.88;96521.91;5014733;28;20426;-77
2023/04/07 03:42:41;;;;;;;9.98;6.65;;;;;;;7.19;62.90;96519.97;5014871;28;20050;-78
2023/04/07 03:45:10;;;;;;;9.75;7.30;;;;;;;7.13;63.26;96512.84;5014997;28;20049;-78
2023/04/07 03:47:38;;;;;;;11.23;7.03;;;;;;;7.05;64.04;96515.44;5014796;28;20133;-78
2023/04/07 03:50:06;;;;;;;10.88;7.78;;;;;;;6.99;63.81;96517.69;5014727;28;20508;-77
2023/04/07 03:52:34;;;;;;;10.30;8.00;;;;;;;6.94;64.09;96527.72;5014296;28;20045;-78
2023/04/07 03:55:02;;;;;;;9.43;6.63;;;;;;;6.88;64.46;96515.41;5014783;28;20084;-78
2023/04/07 03:57:29;;;;;;;9.60;7.05;;;;;;;6.86;64.73;96522.53;5014964;28;20054;-77
2023/04/07 03:59:57;;;;;;;9.35;7.00;;;;;;;6.81;64.87;96522.22;5014880;28;20054;-78
2023/04/07 04:02:26;;;;;;;8.88;6.82;;;;;;;6.81;65.02;96514.44;5014615;28;20054;-79
2023/04/07 04:04:53;;;;;;;8.77;6.18;;;;;;;6.84;64.99;96516.69;5015220;28;20045;-79
2023/04/07 04:07:21;;;;;;;12.70;7.28;;;;;;;6.86;65.05;96506.97;5015222;28;20050;-77
2023/04/07 04:09:48;;;;;;;8.40;6.25;;;;;;;6.91;65.50;96498.72;5014844;28;20052;-78
2023/04/07 04:12:16;;;;;;;10.35;7.28;;;;;;;6.96;65.14;96504.25;5014541;28;20042;-78
2023/04/07 04:14:43;;;;;;;8.27;6.07;;;;;;;7.04;65.71;96498.22;5015333;28;20050;-77
2023/04/07 04:17:11;;;;;;;9.90;6.55;;;;;;;7.13;64.67;96495.50;5015109;28;20057;-78
2023/04/07 04:19:40;;;;;;;8.52;6.75;;;;;;;7.19;64.97;96499.19;5014818;28;20049;-79
2023/04/07 04:22:07;;;;;;;11.60;7.57;;;;;;;7.24;64.71;96496.94;5012535;28;20058;-79
2023/04/07 04:24:35;;;;;;;11.23;7.38;;;;;;;7.29;64.43;96493.88;5013283;28;20041;-78
2023/04/07 04:27:03;;;;;;;10.65;8.00;;;;;;;7.29;64.69;96489.47;5013316;28;20046;-78
2023/04/07 04:29:30;;;;;;;9.27;7.22;;;;;;;7.29;64.55;96486.09;5013205;28;20056;-77
2023/04/07 04:31:59;;;;;;;11.20;7.80;;;;;;;7.32;64.60;96481.34;5013215;28;20095;-78
2023/04/07 04:34:27;;;;;;;14.32;8.20;;;;;;;7.33;64.42;96488.19;5013850;28;20057;-78
2023/04/07 04:36:56;;;;;;;12.80;7.95;;;;;;;7.34;64.71;96489.78;5013805;28;20075;-78
2023/04/07 04:39:23;;;;;;;9.98;7.75;;;;;;;7.34;64.36;96489.78;5013413;28;20135;-79
2023/04/07 04:41:51;;;;;;;11.68;7.35;;;;;;;7.30;64.29;96485.91;5012962;28;20497;-78
2023/04/07 04:44:18;;;;;;;12.05;8.88;;;;;;;7.21;64.53;96489.47;5012932;28;20080;-79
2023/04/07 04:46:46;;;;;;;10.75;8.32;;;;;;;7.15;64.87;96490.13;5012919;28;20045;-79
2023/04/07 04:49:14;;;;;;;10.68;7.93;;;;;;;7.18;65.13;96490.63;5012737;28;20057;-77
2023/04/07 04:51:42;;;;;;;14.60;9.98;;;;;;;7.18;64.57;96495.00;5012513;28;20108;-78
2023/04/07 04:54:11;;;;;;;12.40;8.65;;;;;;;7.13;65.13;96492.91;5013017;28;20054;-78
2023/04/07 04:56:39;;;;;;;10.57;8.25;;;;;;;7.12;64.90;96499.03;5012588;28;20053;-80
2023/04/07 04:59:06;;;;;;;10.70;8.18;;;;;;;7.13;65.39;96499.88;5002274;28;20501;-79
2023/04/07 05:01:34;;;;;;;13.88;9.30;;;;;;;7.16;65.18;96504.72;5013230;28;20046;-75
2023/04/07 05:04:02;;;;;;;11.88;7.80;;;;;;;7.20;64.71;96501.66;5012776;28;20046;-77
2023/04/07 05:06:30;;;;;;;11.95;9.02;;;;;;;7.25;64.88;96506.34;5012725;28;20053;-76
2023/04/07 05:08:57;;;;;;;12.02;8.68;;;;;;;7.25;64.89;96498.56;5013412;28;20058;-78
2023/04/07 05:11:26;;;;;;;12.88;9.43;;;;;;;7.24;64.94;96502.13;5013314;28;20061;-77
2023/04/07 05:13:54;;;;;;;13.90;9.30;;;;;;;7.24;64.49;96502.13;5013967;28;20050;-78
2023/04/07 05:16:21;;;;;;;11.60;8.57;;;;;;;7.25;64.82;96500.34;5013980;28;20045;-79
2023/04/07 05:18:49;;;;;;;13.02;9.75;;;;;;;7.22;64.80;96504.09;5014182;28;20053;-78
2023/04/07 05:21:19;;;;;;;14.43;10.38;;;;;;;7.15;65.39;96503.94;5014120;28;20057;-78
2023/04/07 05:23:46;;;;;;;12.93;8.88;;;;;;;7.16;65.58;96502.13;5016720;28;20050;-80
2023/04/07 05:26:14;;;;;;;14.38;10.45;;;;;;;7.23;65.29;96497.91;5016081;28;20058;-78
2023/04/07 05:28:43;;;;;;;13.27;9.52;;;;;;;7.27;65.34;96493.22;5016266;28;20050;-78
2023/04/07 05:31:11;;;;;;;13.98;8.63;;;;;;;7.30;65.08;96498.06;5015543;28;20042;-78
2023/04/07 05:33:38;;;;;;;15.93;11.20;;;;;;;7.33;65.24;96502.94;5020011;28;20062;-78
2023/04/07 05:36:07;;;;;;;13.70;10.40;;;;;;;7.31;65.27;96504.91;5020361;28;20398;-80
2023/04/07 05:38:34;;;;;;;12.60;10.10;;;;;;;7.24;65.51;96509.94;5019725;28;20125;-80
2023/04/07 05:41:02;;;;;;;14.80;10.63;;;;;;;7.24;65.63;96504.72;5019697;28;20058;-82
2023/04/07 05:43:29;;;;;;;15.43;10.52;;;;;;;7.19;65.79;96504.41;5016171;28;20053;-81
2023/04/07 05:45:58;;;;;;;17.08;11.65;;;;;;;7.15;66.42;96505.69;5019270;28;20049;-78
2023/04/07 05:48:26;;;;;;;13.55;10.25;;;;;;;7.13;66.51;96505.06;5019423;28;20501;-78
2023/04/07 05:50:53;;;;;;;13.75;9.80;;;;;;;7.15;66.87;96503.09;5017647;28;20049;-77
2023/04/07 05:53:21;;;;;;;12.45;9.43;;;;;;;7.18;67.00;96501.00;5019660;28;20148;-77
2023/04/07 05:55:49;;;;;;;14.05;10.23;;;;;;;7.24;66.71;96499.53;5011921;28;20043;-79
2023/04/07 05:58:17;;;;;;;13.30;9.40;;;;;;;7.28;66.79;96500.84;4999205;28;20065;-79
2023/04/07 06:00:44;;;;;;;14.63;11.27;;;;;;;7.26;66.83;96491.56;5010968;28;20049;-78
2023/04/07 06:03:13;;;;;;;15.40;10.27;;;;;;;7.23;67.23;96492.72;5019301;28;20132;-78
2023/04/07 06:05:42;;;;;;;14.20;10.88;;;;;;;7.22;66.97;96496.31;5019559;28;20078;-76
2023/04/07 06:08:10;;;;;;;15.48;11.52;;;;;;;7.15;67.28;96490.97;5018141;28;20052;-76
2023/04/07 06:10:38;;;;;;;14.25;10.65;;;;;;;7.09;67.73;96495.97;5018224;28;20137;-78
2023/04/07 06:13:06;;;;;;;19.02;10.43;;;;;;;7.07;67.78;96493.53;5019579;28;20128;-77
2023/04/07 06:15:33;;;;;;;17.50;12.30;;;;;;;7.07;68.00;96492.75;5019910;28;20046;-76
2023/04/07 06:18:01;;;;;;;17.23;11.80;;;;;;;7.04;68.10;96493.03;5017223;28;20056;-79
2023/04/07 06:20:30;;;;;;;15.93;11.27;;;;;;;7.03;68.77;96487.06;5018423;28;20050;-76
2023/04/07 06:22:58;;;;;;;17.88;12.73;;;;;;;7.04;68.54;96493.03;5018118;28;20486;-77
2023/04/07 06:25:26;;;;;;;16.13;12.00;;;;;;;6.99;68.55;96490.94;5017460;28;20053;-80
2023/04/07 06:27:54;;;;;;;16.05;11.88;;;;;;;7.00;68.78;96497.75;5015669;28;20133;-78
2023/04/07 06:30:21;;;;;;;15.15;11.30;;;;;;;7.03;69.03;96499.22;5014472;28;20045;-77
2023/04/07 06:32:49;;;;;;;15.55;11.60;;;;;;;7.07;68.89;96497.94;5015152;28;20050;-77
2023/04/07 06:35:17;;;;;;;19.05;12.27;;;;;;;7.04;69.02;96493.88;5015246;28;20050;-77
2023/04/07 06:37:46;;;;;;;16.38;11.88;;;;;;;7.04;69.06;96498.22;5016735;28;20096;-77
2023/04/07 06:40:14;;;;;;;13.52;10.32;;;;;;;7.03;69.04;96496.63;5018246;28;20049;-79
2023/04/07 06:42:41;;;;;;;16.60;11.82;;;;;;;7.02;69.06;96503.59;5016317;28;20046;-78
2023/04/07 06:45:10;;;;;;;19.15;12.57;;;;;;;6.98;69.30;96497.13;5015866;28;20057;-78
2023/04/07 06:47:38;;;;;;;21.33;14.77;;;;;;;6.93;69.45;96491.59;5016940;28;20060;-78
2023/04/07 06:50:07;;;;;;;16.20;11.77;;;;;;;6.86;70.04;96496.59;5017543;28;20053;-79
2023/04/07 06:52:35;;;;;;;17.48;12.80;;;;;;;6.85;69.60;96489.81;5016786;28;20057;-78
2023/04/07 06:55:04;;;;;;;19.60;12.73;;;;;;;6.83;69.97;96483.16;5005734;28;20053;-79
2023/04/07 06:57:32;;;;;;;21.23;14.02;;;;;;;6.81;69.85;96491.09;5011499;28;20050;-76
2023/04/07 06:59:59;;;;;;;18.42;12.25;;;;;;;6.79;70.44;96496.44;5019229;28;20125;-83
2023/04/07 07:02:27;;;;;;;22.90;13.07;;;;;;;6.81;70.10;96494.50;5026157;28;20052;-85
2023/04/07 07:04:55;;;;;;;17.48;12.57;;;;;;;6.81;70.08;96496.28;5023230;28;20042;-83
2023/04/07 07:07:24;;;;;;;19.23;13.27;;;;;;;6.77;70.45;96493.19;5019496;28;20501;-83
2023/04/07 07:09:52;;;;;;;17.70;12.25;;;;;;;6.75;70.88;96496.91;5015804;28;20433;-85
2023/04/07 07:12:21;;;;;;;17.95;11.88;;;;;;;6.75;71.13;96495.13;5016114;28;20050;-81
2023/04/07 07:14:49;;;;;;;18.70;13.02;;;;;;;6.77;70.54;96497.56;5015277;28;20050;-78
2023/04/07 07:17:16;;;;;;;15.77;11.85;;;;;;;6.74;71.41;96503.88;5014244;28;20054;-83
2023/04/07 07:19:44;;;;;;;17.70;11.70;;;;;;;6.80;71.22;96497.28;5016359;28;20064;-86
2023/04/07 07:22:11;;;;;;;18.95;13.10;;;;;;;6.85;71.26;96502.78;5019239;28;20113;-85
2023/04/07 07:24:39;;;;;;;15.73;11.30;;;;;;;6.88;71.54;96494.66;5019482;28;20054;-81
2023/04/07 07:27:07;;;;;;;17.20;11.75;;;;;;;6.93;71.21;96505.38;5018041;28;20052;-83
2023/04/07 07:29:36;;;;;;;15.63;12.27;;;;;;;6.93;71.59;96502.78;5012394;28;20413;-88
2023/04/07 07:32:04;;;;;;;15.65;11.38;;;;;;;6.97;71.43;96498.88;5014005;28;20161;-85
2023/04/07 07:34:32;;;;;;;17.27;12.45;;;;;;;7.06;71.35;96504.06;5015281;28;20053;-79
2023/04/07 07:37:00;;;;;;;15.30;10.75;;;;;;;7.10;71.49;96507.97;5016545;28;20057;-83
2023/04/07 07:39:28;;;;;;;15.02;11.02;;;;;;;7.16;71.23;96512.50;5019304;28;20061;-78
2023/04/07 07:41:56;;;;;;;16.88;11.52;;;;;;;7.23;72.03;96513.47;5014847;28;20107;-77
2023/04/07 07:44:24;;;;;;;17.08;10.88;;;;;;;7.35;71.43;96512.19;5016837;28;20050;-85
2023/04/07 07:46:53;;;;;;;18.40;11.70;;;;;;;7.43;71.59;96512.19;5015911;28;20107;-82
2023/04/07 07:49:20;;;;;;;15.73;11.73;;;;;;;7.50;70.95;96514.09;5017034;28;20456;-81
2023/04/07 07:51:48;;;;;;;14.52;11.15;;;;;;;7.54;70.98;96511.03;5017080;28;20416;-81
2023/04/07 07:54:15;;;;;;;16.05;11.88;;;;;;;7.61;70.86;96516.38;4997931;28;20047;-87
2023/04/07 07:56:43;;;;;;;17.10;12.25;;;;;;;7.60;71.24;96512.16;4998667;28;20129;-86
2023/04/07 07:59:11;;;;;;;18.80;12.52;;;;;;;7.60;71.08;96512.94;4997919;28;20053;-83
2023/04/07 08:01:38;;;;;;;16.20;11.80;;;;;;;7.57;70.84;96510.69;4997816;28;20437;-85
2023/04/07 08:04:07;;;;;;;13.48;10.20;;;;;;;7.54;71.30;96510.19;4998571;28;20046;-80
2023/04/07 08:06:36;;;;;;;13.70;10.68;;;;;;;7.58;71.53;96514.09;5017893;28;20072;-84
2023/04/07 08:09:05;;;;;;;15.20;11.30;;;;;;;7.64;71.41;96514.25;5037772;22;20054;-78
2023/04/07 08:11:33;;;;;;;14.52;11.48;;;;;;;7.67;70.93;96515.69;5033684;28;20045;-79
2023/04/07 08:14:00;;;;;;;16.60;11.10;;;;;;;7.68;71.18;96516.53;5028497;28;20568;-79
2023/04/07 08:16:28;;;;;;;17.77;11.45;;;;;;;7.70;71.21;96515.38;5016887;28;20472;-79
2023/04/07 08:18:55;;;;;;;15.25;11.75;;;;;;;7.75;71.02;96520.06;5018973;28;20050;-76
2023/04/07 08:21:26;;;;;;;15.80;11.73;;;;;;;7.77;71.03;96525.91;4995174;28;20053;-75
2023/04/07 08:23:53;;;;;;;13.98;10.65;;;;;;;7.79;70.47;96519.56;5139319;22;20057;-79
2023/04/07 08:26:21;;;;;;;14.43;9.85;;;;;;;7.81;70.29;96525.41;5033490;28;20424;-78
2023/04/07 08:28:50;;;;;;;12.88;10.25;;;;;;;7.83;69.89;96527.84;5037549;28;20152;-78
2023/04/07 08:31:17;;;;;;;14.52;10.80;;;;;;;7.87;69.83;96523.13;5028780;28;20054;-77
2023/04/07 08:33:46;;;;;;;15.00;10.35;;;;;;;7.90;69.76;96528.81;5026146;28;20108;-78
2023/04/07 08:36:14;;;;;;;10.55;9.13;;;;;;;7.99;69.83;96522.59;5014138;28;20476;-77
2023/04/07 08:38:43;;;;;;;13.18;9.32;;;;;;;8.13;69.94;96520.28;5013090;28;20050;-78
2023/04/07 08:41:13;;;;;;;11.75;8.85;;;;;;;8.29;69.52;96527.19;5012701;28;20440;-78
2023/04/07 08:43:45;;;;;;;14.63;9.43;;;;;;;8.43;68.99;96524.72;5012794;28;20140;-78
2023/04/07 08:46:13;;;;;;;;;;;;;;;8.61;69.13;96528.88;5013300;28;20494;-78
2023/04/07 08:48:44;;;;;;;13.10;8.55;;;;;;;8.75;68.63;96525.53;5012982;28;19921;-78
2023/04/07 08:51:14;;;;;;;10.48;8.15;;;;;;;8.84;67.07;96521.91;5013199;28;20048;-78
2023/04/07 08:53:48;;;;;;;11.10;8.15;;;;;;;8.89;67.11;96526.59;5012968;28;20425;-77
2023/04/07 08:56:17;;;;;;;12.45;8.20;;;;;;;8.98;67.42;96522.13;5012868;28;20050;-78
2023/04/07 08:58:49;;;;;;;10.50;7.95;;;;;;;9.05;66.45;96530.84;5012585;28;20506;-78
2023/04/07 09:01:16;;;;;;;9.80;7.95;;;;;;;9.11;66.68;96524.16;5012984;28;20052;-79
2023/04/07 09:03:45;;;;;;;9.73;7.78;;;;;;;9.12;65.61;96525.78;5012412;28;20054;-77
2023/04/07 09:06:14;;;;;;;10.77;7.70;;;;;;;9.08;65.21;96527.94;5012780;28;20059;-77
2023/04/07 09:08:43;;;;;;;10.05;7.68;;;;;;;9.05;65.23;96523.88;5012484;28;20050;-78
2023/04/07 09:11:11;;;;;;;7.60;6.28;;;;;;;9.04;65.90;96524.06;5012251;28;20045;-78
2023/04/07 09:13:39;;;;;;;10.70;7.32;;;;;;;9.13;66.54;96528.22;5012249;28;20053;-78
2023/04/07 09:16:07;;;;;;;10.93;6.75;;;;;;;9.21;66.55;96530.75;5012408;28;20532;-78
2023/04/07 09:18:35;;;;;;;8.75;6.50;;;;;;;9.29;66.87;96522.06;5012732;28;20050;-78
2023/04/07 09:21:06;;;;;;;8.00;6.47;;;;;;;9.34;66.50;96529.38;5012424;28;20049;-78
2023/04/07 09:23:35;;;;;;;8.10;6.13;;;;;;;9.34;65.54;96524.97;5012064;28;20636;-78
2023/04/07 09:28:58;;;;;;;9.07;6.88;;;;;;;9.53;66.40;96533.25;5089874;28;20363;-79
2023/04/07 09:31:45;;;;;;;6.85;6.05;;;;;;;9.68;66.46;96531.47;5089930;28;20059;-78
2023/04/07 09:34:24;;;;;;;8.02;6.45;;;;;;;9.74;66.27;96525.56;5090064;28;20423;-78
2023/04/07 09:36:52;;;;;;;7.43;6.35;;;;;;;9.81;65.60;96531.69;5089979;28;20051;-78
2023/04/07 09:39:20;;;;;;;7.18;5.88;;;;;;;9.89;65.27;96534.22;5089855;28;20055;-78
2023/04/07 09:41:48;;;;;;;9.57;6.50;;;;;;;9.93;64.48;96536.44;5089411;28;20529;-78
2023/04/07 09:44:17;;;;;;;7.50;6.18;;;;;;;9.86;64.01;96533.75;5089729;28;20048;-78
2023/04/07 09:46:51;;;;;;;9.30;6.43;;;;;;;9.86;64.56;96534.56;5089559;28;20436;-79
2023/04/07 09:49:20;;;;;;;8.05;6.18;;;;;;;9.89;64.62;96529.00;5089965;28;20070;-79
2023/04/07 09:51:53;;;;;;;6.50;5.50;;;;;;;9.99;64.93;96530.53;5089331;28;20056;-79
2023/04/07 09:54:34;;;;;;;5.60;5.05;;;;;;;10.13;64.48;96534.94;5089644;28;20500;-78
2023/04/07 09:57:03;;;;;;;9.00;6.20;;;;;;;10.22;63.92;96527.84;5089499;28;20139;-78
2023/04/07 09:59:33;;;;;;;6.60;5.03;;;;;;;10.35;64.54;96530.63;5089270;28;20547;-78
2023/04/07 10:02:01;;;;;;;5.05;4.38;;;;;;;10.44;63.17;96531.34;5089219;28;20066;-78
2023/04/07 10:04:29;;;;;;;4.78;4.07;;;;;;;10.55;63.54;96527.47;5089197;28;20136;-79
2023/04/07 10:06:58;;;;;;;2.97;2.70;;;;;;;10.69;61.24;96524.81;5089243;28;20520;-78
2023/04/07 10:09:28;;;;;;;2.13;1.92;;;;;;;10.81;60.31;96532.97;5088957;28;20105;-78
2023/04/07 10:11:58;;;;;;;2.35;2.15;;;;;;;10.92;59.69;96536.88;5088896;28;20044;-78
2023/04/07 10:14:28;;;;;;;3.50;2.60;;;;;;;11.07;59.59;96537.66;5089074;28;20058;-79
2023/04/07 10:16:57;;;;;;;2.60;2.05;;;;;;;11.28;58.77;96534.22;5089471;28;20503;-78
2023/04/07 10:19:26;;;;;;;2.22;1.95;;;;;;;11.44;58.21;96533.16;5088752;28;20526;-79
2023/04/07 10:21:55;;;;;;;6.22;3.30;;;;;;;11.61;58.52;96536.31;5088666;28;20056;-78
2023/04/07 10:24:37;;;;;;;4.13;3.15;;;;;;;11.68;58.75;96536.34;5088969;28;20049;-78
2023/04/07 10:27:10;;;;;;;5.28;3.65;;;;;;;11.80;58.69;96547.09;5088429;28;20499;-79
2023/04/07 10:29:41;;;;;;;;;;;;;;;11.94;58.68;96544.41;5089344;28;20084;-79
2023/04/07 10:32:10;;;;;;;4.03;3.63;;;;;;;12.03;58.18;96541.66;5088676;28;19920;-78
2023/04/07 10:35:00;;;;;;;5.95;3.90;;;;;;;12.00;57.63;96536.78;5088600;28;20052;-78
2023/04/07 10:37:27;;;;;;;4.38;3.78;;;;;;;11.83;57.91;96546.69;5088633;28;20530;-78
2023/04/07 10:40:30;;;;;;;4.38;3.97;;;;;;;11.64;58.41;96542.97;5077334;28;20055;-78
2023/04/07 10:42:58;;;;;;;5.72;3.92;;;;;;;11.58;59.36;96546.31;5074972;28;20534;-78
2023/04/07 10:45:58;;;;;;;3.25;2.83;;;;;;;11.59;59.42;96542.69;5075251;28;20048;-78
2023/04/07 10:48:32;;;;;;;4.55;3.72;;;;;;;11.62;59.03;96545.75;5075004;28;20534;-78
2023/04/07 10:51:18;;;;;;;4.93;3.20;;;;;;;11.67;59.10;96542.56;5075087;28;20052;-78
2023/04/07 10:54:21;;;;;;;4.72;3.83;;;;;;;11.70;58.54;96542.22;5074640;28;20492;-78
2023/04/07 10:57:20;;;;;;;3.95;3.60;;;;;;;11.72;58.00;96538.41;5074899;28;20048;-79
2023/04/07 11:00:16;;;;;;;3.10;2.65;;;;;;;11.72;57.83;96535.78;5075455;28;20050;-78
2023/04/07 11:02:44;;;;;;;3.95;2.95;;;;;;;11.74;57.91;96540.81;5074696;28;20056;-79
2023/04/07 11:05:23;;;;;;;4.03;3.15;;;;;;;11.77;58.53;96545.66;5075376;28;20048;-78
2023/04/07 11:07:54;;;;;;;3.70;3.20;;;;;;;11.81;58.62;96554.75;5074772;28;20048;-79
2023/04/07 11:10:22;;;;;;;4.13;3.65;;;;;;;11.82;58.05;96550.31;5075096;28;20056;-78
2023/04/07 11:13:00;;;;;;;3.70;3.40;;;;;;;11.73;57.47;96552.25;5074959;28;20052;-78
2023/04/07 11:15:28;;;;;;;4.18;3.45;;;;;;;11.71;58.14;96549.03;5075572;28;20518;-78
2023/04/07 11:18:16;;;;;;;8.25;4.30;;;;;;;11.80;58.13;96552.31;5075466;28;20467;-78
2023/04/07 11:21:04;;;;;;;4.32;3.90;;;;;;;11.80;57.40;96542.66;5079282;28;20143;-79
2023/04/07 11:23:39;;;;;;;5.00;3.97;;;;;;;11.78;57.93;96544.66;5070540;28;20036;-79
2023/04/07 11:26:09;;;;;;;5.55;4.25;;;;;;;11.73;57.84;96549.66;5074282;28;20049;-79
2023/04/07 11:28:46;;;;;;;6.15;4.70;;;;;;;11.70;57.95;96544.81;5072903;28;20420;-79
2023/04/07 11:31:21;;;;;;;7.28;4.22;;;;;;;11.68;58.26;96539.78;5072662;28;20459;-79
2023/04/07 11:33:52;;;;;;;4.90;4.40;;;;;;;11.72;58.31;96540.22;5070277;28;20079;-79
2023/04/07 11:36:28;;;;;;;9.10;5.22;;;;;;;11.72;57.87;96548.84;5072739;28;20065;-78
2023/04/07 11:38:57;;;;;;;6.65;4.40;;;;;;;11.84;59.14;96543.91;5063273;28;20049;-79
2023/04/07 11:41:26;;;;;;;7.25;4.80;;;;;;;12.01;57.81;96541.03;5062632;28;20049;-79
2023/04/07 11:44:07;;;;;;;6.43;5.00;;;;;;;12.18;57.80;96541.50;5065948;28;20056;-79
2023/04/07 11:46:36;;;;;;;7.47;5.22;;;;;;;12.39;56.98;96545.84;5063459;28;20136;-79
2023/04/07 11:49:11;;;;;;;5.32;4.40;;;;;;;12.48;56.50;96549.91;5060394;28;20041;-78